Time;durP1;ratioP1;P1;durP2;ratioP2;P2;SDS_P1;SDS_P2;PMS_P1;PMS_P2;Temp;Humidity;BMP_temperature;BMP_pressure;BME280_temperature;BME280_humidity;BME280_pressure;Samples;Min_cycle;Max_cycle;Signal;HPM_P1;HPM_P2
2022/06/20 00:02:24;;;;;;;3.97;1.38;;;;;;;;;;5063577;28;20089;-74
2022/06/20 00:04:51;;;;;;;4.22;1.50;;;;;;;;;;5080227;28;20043;-74
2022/06/20 00:07:17;;;;;;;5.47;1.50;;;;;;;;;;5060619;28;20040;-74
2022/06/20 00:09:43;;;;;;;5.22;1.40;;;;;;;;;;5078899;28;20037;-74
2022/06/20 00:12:15;;;;;;;8.32;2.47;;;;;;;;;;5061600;28;20125;-75
2022/06/20 00:14:41;;;;;;;3.08;1.45;;;;;;;;;;5078606;28;20169;-75
2022/06/20 00:17:12;;;;;;;7.70;1.55;;;;;;;;;;5062094;28;20115;-75
2022/06/20 00:19:39;;;;;;;2.78;1.30;;;;;;;;;;5061521;28;20047;-74
2022/06/20 00:22:05;;;;;;;4.50;1.73;;;;;;;;;;5061990;28;20484;-74
2022/06/20 00:24:31;;;;;;;6.10;1.60;;;;;;;;;;5079757;28;20044;-75
2022/06/20 00:26:58;;;;;;;3.10;1.52;;;;;;;;;;5060710;28;20048;-74
2022/06/20 00:29:24;;;;;;;7.15;1.70;;;;;;;;;;5062168;28;20047;-74
2022/06/20 00:31:49;;;;;;;7.25;1.60;;;;;;;;;;5061232;28;20039;-75
2022/06/20 00:34:15;;;;;;;4.45;1.50;;;;;;;;;;5062987;28;20036;-74
2022/06/20 00:36:41;;;;;;;5.20;1.73;;;;;;;;;;5078043;28;20040;-75
2022/06/20 00:39:08;;;;;;;3.35;1.40;;;;;;;;;;5077633;28;20055;-75
2022/06/20 00:41:34;;;;;;;4.45;1.55;;;;;;;;;;5079304;28;20491;-75
2022/06/20 00:44:01;;;;;;;2.28;1.60;;;;;;;;;;5078154;28;20048;-75
2022/06/20 00:46:40;;;;;;;4.85;1.50;;;;;;;;;;5078444;28;20089;-75
2022/06/20 00:49:07;;;;;;;3.67;1.73;;;;;;;;;;5079042;28;20438;-74
2022/06/20 00:51:38;;;;;;;5.03;1.73;;;;;;;;;;5064790;28;20108;-75
2022/06/20 00:54:11;;;;;;;4.10;1.50;;;;;;;;;;5066071;28;20119;-75
2022/06/20 00:56:42;;;;;;;7.45;2.00;;;;;;;;;;5083650;28;20040;-74
2022/06/20 00:59:13;;;;;;;3.00;1.40;;;;;;;;;;5083221;28;20039;-74
2022/06/20 01:01:40;;;;;;;2.55;1.60;;;;;;;;;;5082124;28;20037;-74
2022/06/20 01:04:18;;;;;;;5.65;1.75;;;;;;;;;;5081718;28;20040;-73
2022/06/20 01:06:49;;;;;;;2.88;1.52;;;;;;;;;;5066656;28;20040;-75
2022/06/20 01:09:16;;;;;;;5.88;1.58;;;;;;;;;;5066596;28;20430;-74
2022/06/20 01:11:47;;;;;;;4.30;1.92;;;;;;;;;;5082172;28;20094;-75
2022/06/20 01:14:34;;;;;;;4.68;1.80;;;;;;;;;;5064204;28;20139;-75
2022/06/20 01:17:00;;;;;;;6.18;2.30;;;;;;;;;;5081712;28;20189;-75
2022/06/20 01:19:32;;;;;;;7.63;1.80;;;;;;;;;;5081106;28;20404;-74
2022/06/20 01:22:00;;;;;;;3.80;1.60;;;;;;;;;;5081320;28;20075;-75
2022/06/20 01:24:30;;;;;;;4.90;2.47;;;;;;;;;;5081853;28;20093;-75
2022/06/20 01:27:12;;;;;;;5.43;1.85;;;;;;;;;;5066581;28;20089;-75
2022/06/20 01:29:38;;;;;;;7.28;2.22;;;;;;;;;;5066353;28;20035;-75
2022/06/20 01:32:04;;;;;;;5.05;1.80;;;;;;;;;;5065027;28;20032;-75
2022/06/20 01:34:32;;;;;;;4.85;1.63;;;;;;;;;;5081437;28;20036;-74
2022/06/20 01:39:45;;;;;;;3.95;1.75;;;;;;;;;;5081823;28;20516;-74
2022/06/20 01:42:18;;;;;;;3.65;1.88;;;;;;;;;;5080919;28;20109;-75
2022/06/20 01:44:49;;;;;;;4.65;1.50;;;;;;;;;;5082074;28;20040;-75
2022/06/20 01:47:15;;;;;;;;;;;;;;;;;;5063826;28;20086;-74
2022/06/20 01:49:42;;;;;;;3.75;1.98;;;;;;;;;;5072663;28;20334;-75
2022/06/20 01:52:13;;;;;;;7.82;2.00;;;;;;;;;;5093235;28;20040;-75
2022/06/20 01:54:43;;;;;;;7.03;1.80;;;;;;;;;;5076549;28;20054;-75
2022/06/20 01:57:11;;;;;;;4.90;1.67;;;;;;;;;;5093359;28;20042;-74
2022/06/20 01:59:50;;;;;;;7.45;2.10;;;;;;;;;;5076025;28;20108;-75
2022/06/20 02:02:16;;;;;;;7.22;2.00;;;;;;;;;;5092639;28;20040;-73
2022/06/20 02:04:43;;;;;;;7.90;1.65;;;;;;;;;;5093105;28;20047;-75
2022/06/20 02:07:10;;;;;;;6.82;1.88;;;;;;;;;;5075996;28;20044;-75
2022/06/20 02:09:36;;;;;;;5.95;1.85;;;;;;;;;;5076052;28;20503;-74
2022/06/20 02:12:02;;;;;;;5.32;2.25;;;;;;;;;;5076039;28;20127;-74
2022/06/20 02:14:34;;;;;;;7.15;2.38;;;;;;;;;;5093069;28;20400;-74
2022/06/20 02:17:03;;;;;;;4.93;1.88;;;;;;;;;;5075874;28;20044;-74
2022/06/20 02:19:35;;;;;;;4.72;1.92;;;;;;;;;;5075943;28;20048;-74
2022/06/20 02:22:04;;;;;;;7.63;2.08;;;;;;;;;;5075468;28;20052;-75
2022/06/20 02:24:36;;;;;;;5.97;1.80;;;;;;;;;;5082866;28;20041;-75
2022/06/20 02:27:03;;;;;;;5.07;1.92;;;;;;;;;;5080531;28;20071;-75
2022/06/20 02:29:31;;;;;;;5.32;1.77;;;;;;;;;;5081853;28;20024;-74
2022/06/20 02:31:58;;;;;;;2.67;1.67;;;;;;;;;;5063822;28;20441;-73
2022/06/20 02:34:26;;;;;;;3.45;1.90;;;;;;;;;;5080525;28;20488;-75
2022/06/20 02:36:53;;;;;;;6.47;2.63;;;;;;;;;;5062413;28;20036;-76
2022/06/20 02:39:19;;;;;;;6.30;1.90;;;;;;;;;;5080736;28;20084;-73
2022/06/20 02:41:46;;;;;;;4.25;1.85;;;;;;;;;;5063106;28;20090;-73
2022/06/20 02:44:18;;;;;;;3.13;1.90;;;;;;;;;;5081687;28;20036;-76
2022/06/20 02:46:46;;;;;;;3.13;1.52;;;;;;;;;;5081216;28;20583;-74
2022/06/20 02:49:13;;;;;;;4.43;1.58;;;;;;;;;;5065410;28;20044;-75
2022/06/20 02:51:40;;;;;;;4.63;2.17;;;;;;;;;;5063669;28;20078;-74
2022/06/20 02:54:07;;;;;;;6.10;2.17;;;;;;;;;;5081641;28;20046;-74
2022/06/20 02:56:43;;;;;;;5.43;2.63;;;;;;;;;;5062853;28;20028;-74
2022/06/20 02:59:15;;;;;;;5.72;2.50;;;;;;;;;;5062721;28;20037;-73
2022/06/20 03:01:52;;;;;;;4.93;2.42;;;;;;;;;;5063406;28;20092;-73
2022/06/20 03:04:19;;;;;;;6.38;2.75;;;;;;;;;;5080113;28;20036;-74
2022/06/20 03:06:47;;;;;;;6.70;2.20;;;;;;;;;;5062475;28;20039;-75
2022/06/20 03:09:14;;;;;;;6.57;1.95;;;;;;;;;;5062726;28;20040;-75
2022/06/20 03:11:41;;;;;;;7.65;2.38;;;;;;;;;;5079811;28;20036;-74
2022/06/20 03:14:08;;;;;;;5.03;2.00;;;;;;;;;;5063885;28;20484;-75
2022/06/20 03:16:34;;;;;;;4.93;2.40;;;;;;;;;;5062752;28;20040;-75
2022/06/20 03:19:01;;;;;;;5.18;2.42;;;;;;;;;;5062990;28;20074;-74
2022/06/20 03:21:30;;;;;;;6.82;2.72;;;;;;;;;;5064259;28;20059;-74
2022/06/20 03:23:56;;;;;;;5.18;2.58;;;;;;;;;;5079283;28;20552;-74
2022/06/20 03:26:24;;;;;;;5.32;2.00;;;;;;;;;;5074381;28;20127;-75
2022/06/20 03:28:51;;;;;;;6.30;2.38;;;;;;;;;;5091050;28;20040;-74
2022/06/20 03:31:17;;;;;;;6.72;2.13;;;;;;;;;;5091543;28;20036;-75
2022/06/20 03:33:43;;;;;;;5.78;2.10;;;;;;;;;;5074189;28;20047;-75
2022/06/20 03:36:15;;;;;;;5.88;2.17;;;;;;;;;;5074283;28;20396;-75
2022/06/20 03:38:44;;;;;;;6.93;2.22;;;;;;;;;;5091037;28;20535;-75
2022/06/20 03:41:10;;;;;;;8.70;2.20;;;;;;;;;;5074086;28;20506;-74
2022/06/20 03:43:38;;;;;;;4.40;1.83;;;;;;;;;;5074061;28;20047;-75
2022/06/20 03:46:08;;;;;;;4.68;2.10;;;;;;;;;;5091136;28;20043;-75
2022/06/20 03:48:37;;;;;;;5.60;2.00;;;;;;;;;;5074121;28;20405;-75
2022/06/20 03:51:08;;;;;;;4.07;1.88;;;;;;;;;;5074272;28;20036;-76
2022/06/20 03:53:39;;;;;;;4.38;2.10;;;;;;;;;;5074045;28;20035;-75
2022/06/20 03:56:11;;;;;;;4.50;1.77;;;;;;;;;;5090879;28;20040;-76
2022/06/20 03:58:47;;;;;;;4.93;2.15;;;;;;;;;;5091179;28;20055;-75
2022/06/20 04:01:21;;;;;;;3.35;1.85;;;;;;;;;;5073883;28;20036;-75
2022/06/20 04:03:50;;;;;;;5.63;1.95;;;;;;;;;;5073751;28;20093;-75
2022/06/20 04:06:25;;;;;;;3.72;2.17;;;;;;;;;;5073786;28;20076;-76
2022/06/20 04:11:51;;;;;;;5.38;2.38;;;;;;;;;;5090395;28;20409;-76
2022/06/20 04:14:21;;;;;;;5.03;2.03;;;;;;;;;;5073611;28;20072;-75
2022/06/20 04:16:56;;;;;;;5.32;2.45;;;;;;;;;;5073743;28;20043;-75
2022/06/20 04:19:27;;;;;;;2.17;1.60;;;;;;;;;;5090696;28;20484;-74
2022/06/20 04:21:55;;;;;;;3.67;2.08;;;;;;;;;;5091677;28;20051;-75
2022/06/20 04:24:30;;;;;;;5.85;1.90;;;;;;;;;;5090436;28;20669;-75
2022/06/20 04:27:23;;;;;;;5.70;1.88;;;;;;;;;;5090493;28;20040;-74
2022/06/20 04:29:55;;;;;;;6.20;2.63;;;;;;;;;;5051080;28;20534;-74
2022/06/20 04:32:31;;;;;;;7.93;2.58;;;;;;;;;;5091218;28;20051;-75
2022/06/20 04:35:02;;;;;;;7.45;2.30;;;;;;;;;;5075199;28;20050;-75
2022/06/20 04:37:49;;;;;;;4.53;1.85;;;;;;;;;;5089911;28;20571;-75
2022/06/20 04:40:18;;;;;;;4.47;2.20;;;;;;;;;;5073585;28;20105;-75
2022/06/20 04:42:53;;;;;;;6.45;2.33;;;;;;;;;;5091011;28;20051;-75
2022/06/20 04:45:21;;;;;;;6.78;2.45;;;;;;;;;;5073882;28;20055;-74
2022/06/20 04:47:50;;;;;;;3.78;2.13;;;;;;;;;;5090030;28;20036;-75
2022/06/20 04:50:18;;;;;;;4.25;2.60;;;;;;;;;;5073497;28;20075;-75
2022/06/20 04:52:44;;;;;;;2.70;2.50;;;;;;;;;;5073526;28;20047;-76
2022/06/20 04:55:16;;;;;;;5.63;2.90;;;;;;;;;;5090292;28;20139;-75
2022/06/20 04:57:42;;;;;;;3.13;2.10;;;;;;;;;;5073266;28;20036;-74
2022/06/20 05:00:09;;;;;;;3.80;2.40;;;;;;;;;;5073201;28;20123;-75
2022/06/20 05:02:35;;;;;;;8.32;2.42;;;;;;;;;;5090211;28;20044;-76
2022/06/20 05:05:04;;;;;;;5.45;2.38;;;;;;;;;;5090305;28;20047;-74
2022/06/20 05:07:34;;;;;;;4.20;2.10;;;;;;;;;;5073201;28;20047;-75
2022/06/20 05:10:03;;;;;;;3.63;2.42;;;;;;;;;;5090040;28;20053;-75
2022/06/20 05:12:40;;;;;;;5.68;2.22;;;;;;;;;;5073052;28;20043;-75
2022/06/20 05:15:14;;;;;;;6.05;2.22;;;;;;;;;;5072925;28;20068;-75
2022/06/20 05:17:41;;;;;;;5.38;2.00;;;;;;;;;;5073386;28;20092;-75
2022/06/20 05:20:10;;;;;;;5.47;2.03;;;;;;;;;;5089689;28;20492;-75
2022/06/20 05:22:39;;;;;;;4.82;2.33;;;;;;;;;;5073131;28;20492;-75
2022/06/20 05:25:07;;;;;;;4.93;1.88;;;;;;;;;;5090473;28;20048;-75
2022/06/20 05:27:53;;;;;;;3.40;1.83;;;;;;;;;;5073522;28;20043;-75
2022/06/20 05:30:22;;;;;;;5.80;2.17;;;;;;;;;;5063323;28;20052;-75
2022/06/20 05:32:51;;;;;;;4.70;2.17;;;;;;;;;;5073847;28;20055;-75
2022/06/20 05:35:33;;;;;;;4.70;1.67;;;;;;;;;;5074036;28;20373;-74
2022/06/20 05:38:03;;;;;;;5.30;1.80;;;;;;;;;;5090697;28;20056;-75
2022/06/20 05:40:31;;;;;;;7.13;2.40;;;;;;;;;;5074643;28;20051;-74
2022/06/20 05:42:57;;;;;;;6.45;2.60;;;;;;;;;;5074684;28;20784;-74
2022/06/20 05:45:24;;;;;;;7.25;2.42;;;;;;;;;;5073991;28;20044;-75
2022/06/20 05:47:54;;;;;;;4.68;2.30;;;;;;;;;;5091064;28;20055;-74
2022/06/20 05:50:31;;;;;;;6.63;2.22;;;;;;;;;;5090305;28;20044;-75
2022/06/20 05:52:58;;;;;;;6.38;2.45;;;;;;;;;;5072530;28;20118;-74
2022/06/20 05:55:26;;;;;;;2.67;2.13;;;;;;;;;;5089296;28;20036;-74
2022/06/20 05:57:55;;;;;;;6.63;2.47;;;;;;;;;;5089440;28;20040;-75
2022/06/20 06:00:33;;;;;;;6.30;2.70;;;;;;;;;;5072290;28;20044;-76
2022/06/20 06:03:03;;;;;;;4.68;2.80;;;;;;;;;;5090207;28;20040;-75
2022/06/20 06:05:32;;;;;;;5.95;2.63;;;;;;;;;;5075147;28;20404;-76
2022/06/20 06:08:17;;;;;;;4.80;2.78;;;;;;;;;;5075004;28;20039;-75
2022/06/20 06:10:55;;;;;;;6.88;3.22;;;;;;;;;;5092656;28;20035;-75
2022/06/20 06:13:27;;;;;;;8.05;3.10;;;;;;;;;;5075810;28;20044;-74
2022/06/20 06:18:57;;;;;;;4.32;3.30;;;;;;;;;;5092728;28;20087;-75
2022/06/20 06:21:24;;;;;;;5.93;3.35;;;;;;;;;;5092650;28;20048;-73
2022/06/20 06:23:50;;;;;;;6.03;3.40;;;;;;;;;;5092452;28;20376;-75
2022/06/20 06:26:17;;;;;;;6.68;3.45;;;;;;;;;;5092459;28;20120;-75
2022/06/20 06:28:44;;;;;;;6.95;2.80;;;;;;;;;;5092477;28;20040;-76
2022/06/20 06:31:14;;;;;;;5.90;3.25;;;;;;;;;;5092413;28;20044;-75
2022/06/20 06:33:44;;;;;;;4.68;2.70;;;;;;;;;;5075784;28;20143;-74
2022/06/20 06:36:13;;;;;;;6.10;2.53;;;;;;;;;;5092573;28;20483;-78
2022/06/20 06:38:42;;;;;;;5.43;2.85;;;;;;;;;;5075548;28;20059;-72
2022/06/20 06:41:14;;;;;;;5.35;2.80;;;;;;;;;;5092103;28;20047;-76
2022/06/20 06:43:43;;;;;;;6.18;3.00;;;;;;;;;;5075170;28;20136;-76
2022/06/20 06:46:18;;;;;;;5.10;2.35;;;;;;;;;;5074797;28;20075;-75
2022/06/20 06:49:03;;;;;;;6.03;2.60;;;;;;;;;;5092155;28;20043;-75
2022/06/20 06:51:36;;;;;;;4.75;2.60;;;;;;;;;;5092263;28;20484;-73
2022/06/20 06:54:12;;;;;;;6.43;2.40;;;;;;;;;;5091875;28;20036;-79
2022/06/20 06:56:42;;;;;;;4.20;2.33;;;;;;;;;;5074956;28;20381;-75
2022/06/20 06:59:11;;;;;;;6.30;2.88;;;;;;;;;;5091786;28;20511;-76
2022/06/20 07:01:40;;;;;;;5.57;2.47;;;;;;;;;;5075116;28;20074;-75
2022/06/20 07:04:21;;;;;;;4.88;2.83;;;;;;;;;;5092048;28;20566;-75
2022/06/20 07:06:47;;;;;;;;;;;;;;;;;;5091860;28;20044;-76
2022/06/20 07:09:16;;;;;;;6.75;2.38;;;;;;;;;;5091572;28;19927;-79
2022/06/20 07:11:53;;;;;;;5.43;2.47;;;;;;;;;;5074674;28;20123;-74
2022/06/20 07:14:21;;;;;;;5.13;2.58;;;;;;;;;;5091864;28;20072;-77
2022/06/20 07:16:59;;;;;;;5.13;2.33;;;;;;;;;;5091864;28;20121;-77
2022/06/20 07:19:27;;;;;;;5.75;2.63;;;;;;;;;;5074793;28;20500;-74
2022/06/20 07:21:53;;;;;;;6.93;2.63;;;;;;;;;;5091380;28;20043;-78
2022/06/20 07:24:25;;;;;;;6.82;2.40;;;;;;;;;;5074620;28;20504;-74
2022/06/20 07:26:55;;;;;;;4.20;2.17;;;;;;;;;;5091181;28;20048;-76
2022/06/20 07:29:27;;;;;;;5.93;2.25;;;;;;;;;;5092493;28;20040;-74
2022/06/20 07:31:56;;;;;;;4.00;2.05;;;;;;;;;;5074301;28;20392;-76
2022/06/20 07:34:41;;;;;;;4.82;2.20;;;;;;;;;;5091640;28;20058;-79
2022/06/20 07:37:12;;;;;;;5.40;2.50;;;;;;;;;;5090356;28;20396;-77
2022/06/20 07:39:42;;;;;;;6.90;3.08;;;;;;;;;;5063300;28;20088;-73
2022/06/20 07:42:10;;;;;;;4.68;2.60;;;;;;;;;;5063718;28;20124;-75
2022/06/20 07:44:43;;;;;;;6.60;2.30;;;;;;;;;;5079688;28;20044;-76
2022/06/20 07:47:12;;;;;;;5.43;2.17;;;;;;;;;;5063759;28;20043;-76
2022/06/20 07:49:43;;;;;;;3.65;2.10;;;;;;;;;;5079703;28;20040;-73
2022/06/20 07:52:12;;;;;;;4.47;2.88;;;;;;;;;;5078592;28;20054;-74
2022/06/20 07:54:50;;;;;;;6.05;2.47;;;;;;;;;;5078967;28;20054;-77
2022/06/20 07:57:22;;;;;;;6.25;2.50;;;;;;;;;;5064523;28;20033;-76
2022/06/20 07:59:48;;;;;;;6.18;2.35;;;;;;;;;;5061375;28;20040;-74
2022/06/20 08:02:27;;;;;;;5.47;2.60;;;;;;;;;;5079774;28;20096;-72
2022/06/20 08:04:57;;;;;;;5.73;2.47;;;;;;;;;;5078993;28;20047;-74
2022/06/20 08:07:23;;;;;;;7.05;2.58;;;;;;;;;;5062164;28;20365;-73
2022/06/20 08:10:01;;;;;;;10.82;2.72;;;;;;;;;;5062819;28;20116;-75
2022/06/20 08:12:33;;;;;;;29.23;4.03;;;;;;;;;;5079265;28;20041;-73
2022/06/20 08:14:59;;;;;;;20.75;3.92;;;;;;;;;;5078822;28;20085;-76
2022/06/20 08:17:25;;;;;;;17.15;3.03;;;;;;;;;;5062452;28;20448;-75
2022/06/20 08:19:52;;;;;;;13.15;3.28;;;;;;;;;;5060759;28;20044;-74
2022/06/20 08:22:20;;;;;;;9.35;2.55;;;;;;;;;;5058072;28;20039;-76
2022/06/20 08:24:46;;;;;;;9.25;2.42;;;;;;;;;;5076628;28;20043;-75
2022/06/20 08:27:20;;;;;;;5.28;2.10;;;;;;;;;;5076785;28;20371;-77
2022/06/20 08:29:55;;;;;;;6.78;2.35;;;;;;;;;;5076415;28;20036;-77
2022/06/20 08:32:27;;;;;;;7.03;2.03;;;;;;;;;;5059669;28;20043;-75
2022/06/20 08:34:57;;;;;;;3.92;1.75;;;;;;;;;;5059339;28;20032;-75
2022/06/20 08:37:25;;;;;;;3.90;1.70;;;;;;;;;;5075198;28;20517;-73
2022/06/20 08:40:10;;;;;;;4.88;1.98;;;;;;;;;;5049655;28;20448;-73
2022/06/20 08:42:49;;;;;;;6.63;1.58;;;;;;;;;;5066420;28;20381;-77
2022/06/20 08:45:34;;;;;;;4.90;1.58;;;;;;;;;;5049024;28;20067;-73
2022/06/20 08:48:00;;;;;;;4.78;1.40;;;;;;;;;;5057291;28;20059;-76
2022/06/20 08:50:44;;;;;;;1.77;1.27;;;;;;;;;;5057508;28;20037;-74
2022/06/20 08:53:16;;;;;;;2.67;1.27;;;;;;;;;;5059814;28;20040;-75
2022/06/20 08:55:58;;;;;;;3.30;1.60;;;;;;;;;;5059500;28;20032;-78
2022/06/20 08:58:30;;;;;;;3.80;1.55;;;;;;;;;;5060268;28;20717;-76
2022/06/20 09:01:07;;;;;;;4.35;1.52;;;;;;;;;;5062990;28;20062;-78
2022/06/20 09:03:45;;;;;;;3.20;1.40;;;;;;;;;;5062526;28;20390;-77
2022/06/20 09:06:25;;;;;;;2.75;1.30;;;;;;;;;;5084270;28;20048;-75
2022/06/20 09:08:54;;;;;;;2.60;1.30;;;;;;;;;;5058275;28;20491;-80
2022/06/20 09:11:39;;;;;;;2.55;1.48;;;;;;;;;;5062416;28;20040;-82
2022/06/20 09:14:15;;;;;;;2.60;1.35;;;;;;;;;;5061889;28;20039;-76
2022/06/20 09:16:56;;;;;;;4.22;1.88;;;;;;;;;;5064383;28;20507;-78
2022/06/20 09:19:42;;;;;;;3.22;1.60;;;;;;;;;;5073406;28;20277;-79
2022/06/20 09:22:16;;;;;;;2.70;1.50;;;;;;;;;;5073104;28;20459;-77
2022/06/20 09:25:01;;;;;;;3.50;1.42;;;;;;;;;;5056154;28;20113;-76
2022/06/20 09:27:33;;;;;;;3.58;2.00;;;;;;;;;;5072896;28;20135;-75
2022/06/20 09:30:16;;;;;;;4.63;1.63;;;;;;;;;;5089710;28;20040;-74
2022/06/20 09:32:57;;;;;;;1.70;1.50;;;;;;;;;;5089297;28;20126;-77
2022/06/20 09:35:48;;;;;;;3.75;1.60;;;;;;;;;;5073071;28;20048;-74
2022/06/20 09:38:13;;;;;;;;;;;;;;;;;;5073478;28;20056;-78
2022/06/20 09:40:46;;;;;;;2.80;1.30;;;;;;;;;;5090220;28;19927;-79
2022/06/20 09:43:11;;;;;;;1.90;1.30;;;;;;;;;;5073315;28;20044;-74
2022/06/20 09:45:57;;;;;;;4.63;1.65;;;;;;;;;;5072368;28;20048;-77
2022/06/20 09:48:32;;;;;;;2.65;1.38;;;;;;;;;;5072805;28;20504;-81
2022/06/20 09:51:17;;;;;;;2.45;1.10;;;;;;;;;;5089341;28;20036;-77
2022/06/20 09:54:02;;;;;;;2.15;1.30;;;;;;;;;;5089750;28;20565;-77
2022/06/20 09:56:36;;;;;;;3.05;1.40;;;;;;;;;;5089204;28;20031;-76
2022/06/20 09:59:07;;;;;;;1.27;1.08;;;;;;;;;;5089519;28;20051;-76
2022/06/20 10:01:45;;;;;;;3.17;1.33;;;;;;;;;;5073071;28;20041;-77
2022/06/20 10:04:20;;;;;;;3.03;1.05;;;;;;;;;;5072562;28;20093;-76
2022/06/20 10:07:03;;;;;;;4.20;1.25;;;;;;;;;;5089710;28;20048;-77
2022/06/20 10:09:38;;;;;;;2.63;1.58;;;;;;;;;;5072090;28;20568;-77
2022/06/20 10:12:07;;;;;;;3.13;1.10;;;;;;;;;;5091106;28;20036;-75
2022/06/20 10:14:54;;;;;;;2.42;1.10;;;;;;;;;;5076779;28;20032;-77
2022/06/20 10:17:37;;;;;;;1.95;1.13;;;;;;;;;;5093311;28;20035;-76
2022/06/20 10:20:06;;;;;;;4.80;1.38;;;;;;;;;;5093888;28;20043;-74
2022/06/20 10:22:37;;;;;;;2.17;1.42;;;;;;;;;;5075814;28;20042;-72
2022/06/20 10:25:17;;;;;;;5.05;1.90;;;;;;;;;;5075528;28;20126;-74
2022/06/20 10:27:53;;;;;;;2.60;1.23;;;;;;;;;;5075578;28;20123;-76
2022/06/20 10:30:21;;;;;;;2.53;1.30;;;;;;;;;;5091626;28;20071;-77
2022/06/20 10:33:00;;;;;;;3.95;1.60;;;;;;;;;;5074886;28;20032;-75
2022/06/20 10:35:52;;;;;;;2.63;1.27;;;;;;;;;;5075512;28;20036;-73
2022/06/20 10:38:38;;;;;;;2.92;1.45;;;;;;;;;;5052370;28;20052;-72
2022/06/20 10:41:23;;;;;;;2.70;1.10;;;;;;;;;;5092200;28;20134;-73
2022/06/20 10:43:55;;;;;;;2.42;1.20;;;;;;;;;;5075540;28;20067;-77
2022/06/20 10:46:26;;;;;;;3.50;1.30;;;;;;;;;;5075238;28;20075;-77
2022/06/20 10:49:08;;;;;;;2.05;1.20;;;;;;;;;;5075032;28;20076;-73
2022/06/20 10:51:49;;;;;;;2.95;1.80;;;;;;;;;;5075788;28;20036;-79
2022/06/20 10:54:22;;;;;;;3.03;1.40;;;;;;;;;;5075164;28;20123;-78
2022/06/20 10:56:55;;;;;;;2.90;1.33;;;;;;;;;;5075193;28;20044;-76
2022/06/20 10:59:24;;;;;;;4.35;1.10;;;;;;;;;;5070330;28;20048;-77
2022/06/20 11:01:51;;;;;;;1.20;1.10;;;;;;;;;;5087935;28;20040;-78
2022/06/20 11:04:37;;;;;;;2.03;1.35;;;;;;;;;;5070730;28;20101;-77
2022/06/20 11:07:09;;;;;;;1.40;1.00;;;;;;;;;;5088386;28;20375;-74
2022/06/20 11:09:47;;;;;;;4.07;1.30;;;;;;;;;;5087982;28;20416;-75
2022/06/20 11:12:31;;;;;;;2.97;1.35;;;;;;;;;;5088093;28;20075;-72
2022/06/20 11:15:08;;;;;;;4.40;1.20;;;;;;;;;;5070950;28;20467;-74
2022/06/20 11:17:40;;;;;;;2.88;1.33;;;;;;;;;;5088299;28;20044;-80
2022/06/20 11:20:22;;;;;;;3.42;1.30;;;;;;;;;;5088264;28;20079;-75
2022/06/20 11:22:56;;;;;;;2.33;1.15;;;;;;;;;;5087612;28;20120;-75
2022/06/20 11:25:39;;;;;;;3.72;1.23;;;;;;;;;;5070581;28;20097;-79
2022/06/20 11:28:08;;;;;;;2.67;1.08;;;;;;;;;;5070142;28;20044;-79
2022/06/20 11:30:41;;;;;;;2.10;1.30;;;;;;;;;;5070643;28;20040;-77
2022/06/20 11:33:07;;;;;;;1.25;1.02;;;;;;;;;;5086750;28;20046;-75
2022/06/20 11:35:46;;;;;;;1.58;1.30;;;;;;;;;;5087247;28;20567;-78
2022/06/20 11:38:27;;;;;;;2.72;1.38;;;;;;;;;;5069848;28;20060;-77
2022/06/20 11:41:14;;;;;;;1.85;1.50;;;;;;;;;;5070392;28;20050;-74
2022/06/20 11:44:07;;;;;;;2.65;1.08;;;;;;;;;;5072516;28;20082;-81
2022/06/20 11:46:36;;;;;;;2.42;1.35;;;;;;;;;;5075301;28;20730;-76
2022/06/20 11:49:08;;;;;;;3.33;1.70;;;;;;;;;;5075423;28;20044;-77
2022/06/20 11:51:47;;;;;;;1.83;1.35;;;;;;;;;;5075395;28;20040;-78
2022/06/20 11:54:20;;;;;;;2.45;1.33;;;;;;;;;;5091214;28;20487;-73
2022/06/20 11:56:54;;;;;;;2.08;1.80;;;;;;;;;;5090496;28;20040;-73
2022/06/20 11:59:28;;;;;;;6.15;1.60;;;;;;;;;;5074234;28;20135;-81
2022/06/20 12:02:12;;;;;;;3.60;1.50;;;;;;;;;;5073992;28;20166;-78
2022/06/20 12:04:42;;;;;;;5.28;1.70;;;;;;;;;;5090577;28;20040;-73
2022/06/20 12:07:19;;;;;;;1.55;1.42;;;;;;;;;;5091102;28;20126;-75
2022/06/20 12:09:48;;;;;;;1.98;0.98;;;;;;;;;;5079263;28;20044;-76
2022/06/20 12:12:32;;;;;;;4.78;1.85;;;;;;;;;;5110352;28;20046;-74
2022/06/20 12:15:06;;;;;;;2.50;1.48;;;;;;;;;;5092500;28;20247;-75
2022/06/20 12:17:51;;;;;;;3.00;1.42;;;;;;;;;;5107760;28;20151;-80
2022/06/20 12:23:18;;;;;;;3.10;1.48;;;;;;;;;;5107360;28;20047;-74
2022/06/20 12:25:47;;;;;;;4.60;1.60;;;;;;;;;;5089901;28;20039;-75
2022/06/20 12:28:23;;;;;;;2.53;1.70;;;;;;;;;;5106640;28;20046;-78
2022/06/20 12:30:58;;;;;;;3.67;1.77;;;;;;;;;;5107906;28;20081;-76
2022/06/20 12:33:24;;;;;;;2.65;1.50;;;;;;;;;;5090181;28;20113;-80
2022/06/20 12:35:53;;;;;;;3.05;1.58;;;;;;;;;;5090784;28;20050;-80
2022/06/20 12:38:41;;;;;;;2.25;1.80;;;;;;;;;;5073886;28;20067;-79
2022/06/20 12:41:10;;;;;;;2.67;1.70;;;;;;;;;;5089844;28;20058;-78
2022/06/20 12:43:48;;;;;;;3.00;2.00;;;;;;;;;;5090464;28;20036;-77
2022/06/20 12:46:24;;;;;;;3.05;1.70;;;;;;;;;;5094296;28;20043;-79
2022/06/20 12:49:09;;;;;;;4.10;1.67;;;;;;;;;;5094252;28;20043;-81
2022/06/20 12:51:38;;;;;;;5.72;1.90;;;;;;;;;;5111656;28;20040;-78
2022/06/20 12:54:12;;;;;;;2.33;2.10;;;;;;;;;;5094566;28;20036;-80
2022/06/20 12:56:45;;;;;;;2.08;1.58;;;;;;;;;;5095035;28;20600;-76
2022/06/20 12:59:17;;;;;;;3.72;2.13;;;;;;;;;;5097456;28;20079;-78
2022/06/20 13:01:46;;;;;;;2.70;1.60;;;;;;;;;;5085194;28;20329;-75
2022/06/20 13:04:28;;;;;;;3.80;2.20;;;;;;;;;;5081703;28;20079;-77
2022/06/20 13:06:54;;;;;;;2.42;1.75;;;;;;;;;;5066800;28;20032;-74
2022/06/20 13:09:32;;;;;;;2.85;1.50;;;;;;;;;;5066328;28;20035;-78
2022/06/20 13:12:02;;;;;;;2.70;1.75;;;;;;;;;;5082898;28;20456;-75
2022/06/20 13:14:30;;;;;;;3.75;1.73;;;;;;;;;;5064930;28;20044;-76
2022/06/20 13:17:04;;;;;;;5.00;1.77;;;;;;;;;;5065961;28;20043;-74
2022/06/20 13:19:49;;;;;;;2.55;1.80;;;;;;;;;;5067889;28;20048;-79
2022/06/20 13:22:18;;;;;;;3.65;1.73;;;;;;;;;;5065577;28;20036;-76
2022/06/20 13:24:44;;;;;;;4.70;1.85;;;;;;;;;;5064793;28;20119;-77
2022/06/20 13:27:24;;;;;;;3.72;1.83;;;;;;;;;;5064539;28;20461;-81
2022/06/20 13:30:14;;;;;;;3.45;1.80;;;;;;;;;;5064799;28;20390;-82
2022/06/20 13:32:49;;;;;;;3.25;1.60;;;;;;;;;;5066828;28;20060;-76
2022/06/20 13:35:24;;;;;;;3.63;1.83;;;;;;;;;;5065029;28;20079;-80
2022/06/20 13:37:58;;;;;;;2.47;1.60;;;;;;;;;;5064047;28;20417;-80
2022/06/20 13:40:46;;;;;;;4.43;2.15;;;;;;;;;;5067331;28;20090;-77
2022/06/20 13:43:30;;;;;;;4.35;1.92;;;;;;;;;;5066394;28;20036;-80
2022/06/20 13:46:00;;;;;;;4.55;2.22;;;;;;;;;;5065541;28;20075;-83
2022/06/20 13:48:34;;;;;;;4.00;1.73;;;;;;;;;;5066896;28;20492;-77
2022/06/20 13:51:13;;;;;;;2.78;1.98;;;;;;;;;;5065934;28;20043;-78
2022/06/20 13:53:45;;;;;;;4.60;1.95;;;;;;;;;;5066164;28;20425;-78
2022/06/20 13:56:17;;;;;;;4.63;2.67;;;;;;;;;;5082270;28;20123;-79
2022/06/20 13:58:48;;;;;;;5.63;2.38;;;;;;;;;;5066244;28;20089;-79
2022/06/20 14:01:16;;;;;;;2.88;1.90;;;;;;;;;;5064262;28;20040;-79
2022/06/20 14:03:47;;;;;;;5.07;2.50;;;;;;;;;;5066988;28;20039;-78
2022/06/20 14:06:34;;;;;;;2.33;2.13;;;;;;;;;;5064613;28;20036;-78
2022/06/20 14:09:02;;;;;;;4.78;2.05;;;;;;;;;;5070786;28;20048;-80
2022/06/20 14:11:28;;;;;;;3.50;2.20;;;;;;;;;;5063792;28;20081;-79
2022/06/20 14:13:54;;;;;;;9.23;2.10;;;;;;;;;;5065749;28;20036;-75
2022/06/20 14:16:23;;;;;;;2.97;2.08;;;;;;;;;;5065126;28;20041;-77
2022/06/20 14:18:52;;;;;;;3.35;1.83;;;;;;;;;;5079977;28;20028;-79
2022/06/20 14:21:19;;;;;;;3.55;1.88;;;;;;;;;;5080030;28;20437;-77
2022/06/20 14:23:48;;;;;;;2.55;2.15;;;;;;;;;;5063505;28;20035;-79
2022/06/20 14:26:33;;;;;;;3.80;2.00;;;;;;;;;;5064529;28;20032;-79
2022/06/20 14:29:01;;;;;;;2.75;2.00;;;;;;;;;;5082847;28;20086;-80
2022/06/20 14:31:32;;;;;;;5.65;1.92;;;;;;;;;;5065757;28;20032;-82
2022/06/20 14:34:19;;;;;;;5.05;2.10;;;;;;;;;;5064943;28;20070;-84
2022/06/20 14:36:48;;;;;;;5.93;2.22;;;;;;;;;;5082429;28;20043;-80
2022/06/20 14:39:17;;;;;;;4.15;1.88;;;;;;;;;;5066814;28;20056;-80
2022/06/20 14:41:43;;;;;;;3.20;2.58;;;;;;;;;;5063946;28;20043;-77
2022/06/20 14:44:27;;;;;;;5.45;1.90;;;;;;;;;;5065341;28;20441;-84
2022/06/20 14:46:56;;;;;;;3.90;1.83;;;;;;;;;;5063769;28;20050;-80
2022/06/20 14:49:25;;;;;;;3.88;2.20;;;;;;;;;;5063750;28;20048;-78
2022/06/20 14:51:57;;;;;;;4.75;2.17;;;;;;;;;;5066015;28;20085;-80
2022/06/20 14:54:42;;;;;;;4.70;2.15;;;;;;;;;;5065011;28;20098;-78
2022/06/20 14:57:18;;;;;;;4.35;2.33;;;;;;;;;;5065406;28;20487;-82
2022/06/20 14:59:44;;;;;;;5.90;2.60;;;;;;;;;;5050242;28;20409;-83
2022/06/20 15:02:18;;;;;;;4.10;2.30;;;;;;;;;;5063005;28;20055;-82
2022/06/20 15:04:56;;;;;;;2.83;2.20;;;;;;;;;;5063182;28;20036;-78
2022/06/20 15:07:32;;;;;;;3.25;1.85;;;;;;;;;;5084892;28;20048;-83
2022/06/20 15:10:00;;;;;;;3.70;2.25;;;;;;;;;;5062783;28;20149;-78
2022/06/20 15:12:33;;;;;;;5.22;2.20;;;;;;;;;;5055632;28;20048;-82
2022/06/20 15:15:18;;;;;;;2.30;2.10;;;;;;;;;;5071166;28;20043;-81
2022/06/20 15:17:50;;;;;;;5.93;2.40;;;;;;;;;;5106147;28;20036;-79
2022/06/20 15:20:26;;;;;;;4.95;2.03;;;;;;;;;;5091192;28;20040;-80
2022/06/20 15:22:56;;;;;;;5.13;2.33;;;;;;;;;;5091361;28;20090;-79
2022/06/20 15:25:23;;;;;;;4.65;2.30;;;;;;;;;;5090688;28;20185;-85
2022/06/20 15:27:55;;;;;;;4.30;1.83;;;;;;;;;;5091163;28;20043;-84